This is the latest recevied weather packets stored in our database for station/object KE9DBJ-13. If no packets are shown the sender has not sent any weather packets the latest 10 day(s).
| Time | Temp. | Humidity | Pressure | Rain* | Wind** | Luminosity | Snow |
|---|---|---|---|---|---|---|---|
| 1777933203 | 24.44° C | 43% | 1005.3 hPa | 0 mm | - | - | - |
| 1777932603 | 25° C | 49% | 1005.4 hPa | 0 mm | - | - | - |
| 1777932003 | 25.56° C | 43% | 1005.3 hPa | 0 mm | - | - | - |
| 1777931403 | 25.56° C | 44% | 1005.1 hPa | 0 mm | - | - | - |
| 1777930802 | 25° C | 46% | 1005.4 hPa | 0 mm | - | - | - |
| 1777930202 | 26.11° C | 44% | 1005.4 hPa | 0 mm | - | - | - |
| 1777929602 | 25.56° C | 44% | 1005.5 hPa | 0 mm | - | - | - |
| 1777929002 | 25.56° C | 43% | 1005.6 hPa | 0 mm | - | - | - |
| 1777928402 | 26.67° C | 41% | 1005.5 hPa | 0 mm | - | - | - |
| 1777927802 | 27.78° C | 40% | 1005.4 hPa | 0 mm | - | - | - |
| 1777927202 | 27.22° C | 43% | 1005.7 hPa | 0 mm | - | - | - |
| 1777926602 | 26.11° C | 48% | 1005.8 hPa | 0 mm | - | - | - |
| 1777926002 | 26.11° C | 43% | 1005.9 hPa | 0 mm | - | - | - |
| 1777925403 | 25.56° C | 48% | 1006.1 hPa | 0 mm | - | - | - |
| 1777924803 | 25° C | 48% | 1006.5 hPa | 0 mm | - | - | - |
| 1777924203 | 25° C | 46% | 1006.6 hPa | 0 mm | - | - | - |
| 1777923603 | 25.56° C | 44% | 1006.9 hPa | 0 mm | - | - | - |
| 1777923003 | 27.22° C | 41% | 1006.8 hPa | 0 mm | - | - | - |
| 1777922403 | 26.67° C | 43% | 1006.9 hPa | 0 mm | - | - | - |
| 1777921803 | 25.56° C | 46% | 1007.1 hPa | 0 mm | - | - | - |
| 1777921202 | 25.56° C | 49% | 1007.1 hPa | 0 mm | - | - | - |
| 1777920603 | 26.11° C | 49% | 1007.3 hPa | 0 mm | - | - | - |
| 1777920002 | 24.44° C | 52% | 1007.6 hPa | 0 mm | - | - | - |
| 1777919402 | 23.33° C | 54% | 1007.6 hPa | 0 mm | - | - | - |
| 1777918802 | 22.78° C | 56% | 1007.6 hPa | 0 mm | - | - | - |
* Rain latest hour (hover to see other rain measurements)
** Current wind speed in m/s (hover to see current wind gust speed)